Time;durP1;ratioP1;P1;durP2;ratioP2;P2;SDS_P1;SDS_P2;PMS_P1;PMS_P2;Temp;Humidity;BMP_temperature;BMP_pressure;BME280_temperature;BME280_humidity;BME280_pressure;Samples;Min_cycle;Max_cycle;Signal;HPM_P1;HPM_P2
2023/09/27 00:02:53;;;;;;;;;;;;;;;21.74;48.07;101094.22;5430029;32;34079;-79
2023/09/27 00:06:14;;;;;;;;;;;;;;;21.68;48.47;101094.69;5427431;32;33823;-79
2023/09/27 00:09:25;;;;;;;;;;;;;;;21.78;48.42;101094.87;5416125;32;34206;-79
2023/09/27 00:12:28;;;;;;;;;;;;;;;21.22;50.17;101099.84;5428003;32;35384;-79
2023/09/27 00:15:30;;;;;;;;;;;;;;;20.99;51.25;101096.16;5432577;32;35465;-79
2023/09/27 00:18:33;;;;;;;;;;;;;;;20.96;51.43;101102.59;5429929;32;35207;-80
2023/09/27 00:21:36;;;;;;;;;;;;;;;21.13;51.15;101088.03;5428934;32;33741;-79
2023/09/27 00:24:39;;;;;;;;;;;;;;;20.37;53.31;101110.25;5431303;32;35196;-79
2023/09/27 00:27:41;;;;;;;;;;;;;;;20.66;52.87;101100.25;5427829;32;33282;-81
2023/09/27 00:30:44;;;;;;;;;;;;;;;20.93;51.89;101092.13;5431456;32;34309;-79
2023/09/27 00:33:46;;;;;;;;;;;;;;;20.63;53.17;101096.97;5428575;32;35386;-79
2023/09/27 00:36:49;;;;;;;;;;;;;;;20.02;55.08;101102.81;5415084;32;34315;-79
2023/09/27 00:39:51;;;;;;;;;;;;;;;19.80;56.04;101102.56;5427432;32;33796;-79
2023/09/27 00:42:53;;;;;;;;;;;;;;;19.77;56.58;101093.88;5428049;32;34402;-79
2023/09/27 00:46:05;;;;;;;;;;;;;;;20.04;56.03;101097.41;5410668;32;34111;-81
2023/09/27 00:49:08;;;;;;;;;;;;;;;19.91;56.60;101099.19;5429180;32;35418;-79
2023/09/27 00:52:12;;;;;;;;;;;;;;;20.38;55.04;101101.28;5430573;32;34162;-79
2023/09/27 00:55:14;;;;;;;;;;;;;;;19.51;57.52;101103.56;5400896;32;34221;-79
2023/09/27 00:58:21;;;;;;;;;;;;;;;19.64;57.35;101107.19;5427524;32;34157;-79
2023/09/27 01:01:24;;;;;;;;;;;;;;;19.73;56.73;101103.91;5428888;32;34205;-80
2023/09/27 01:04:26;;;;;;;;;;;;;;;19.27;58.69;101100.69;5428025;32;34351;-79
2023/09/27 01:07:28;;;;;;;;;;;;;;;19.27;58.59;101096.22;5433216;32;34229;-79
2023/09/27 01:10:31;;;;;;;;;;;;;;;19.04;59.56;101104.81;5429775;32;34492;-79
2023/09/27 01:13:33;;;;;;;;;;;;;;;19.73;57.16;101103.91;5431623;32;34203;-80
2023/09/27 01:16:35;;;;;;;;;;;;;;;19.44;58.76;101117.28;5431323;32;33819;-79
2023/09/27 01:19:43;;;;;;;;;;;;;;;20.13;56.19;101112.78;5425874;32;32810;-80
2023/09/27 01:23:09;;;;;;;;;;;;;;;19.71;57.92;101116.50;5427880;32;33400;-82
2023/09/27 01:26:38;;;;;;;;;;;;;;;19.33;59.06;101114.47;5428157;32;35810;-81
2023/09/27 01:29:50;;;;;;;;;;;;;;;19.18;60.10;101110.12;5416600;32;33721;-81
2023/09/27 01:33:06;;;;;;;;;;;;;;;20.17;57.02;101113.44;5360574;32;34901;-79
2023/09/27 01:36:22;;;;;;;;;;;;;;;19.60;58.78;101119.00;5355894;32;34773;-79
2023/09/27 01:39:42;;;;;;;;;;;;;;;19.54;58.36;101114.06;5349227;32;32932;-81
2023/09/27 01:42:53;;;;;;;;;;;;;;;19.19;60.68;101114.47;5356670;32;35398;-79
2023/09/27 01:46:07;;;;;;;;;;;;;;;19.57;59.50;101119.16;5356003;32;35228;-79
2023/09/27 01:49:16;;;;;;;;;;;;;;;19.64;59.13;101115.19;5342450;32;35293;-79
2023/09/27 01:52:18;;;;;;;;;;;;;;;19.48;59.71;101105.50;5362500;32;34138;-79
2023/09/27 01:55:21;;;;;;;;;;;;;;;19.36;60.36;101105.44;5372072;32;35524;-80
2023/09/27 01:58:23;;;;;;;;;;;;;;;19.23;60.46;101107.16;5365338;32;34269;-80
2023/09/27 02:01:28;;;;;;;;;;;;;;;19.60;59.41;101108.34;5370860;32;34383;-79
2023/09/27 02:04:31;;;;;;;;;;;;;;;19.46;59.85;101112.75;5367668;32;34236;-80
2023/09/27 02:07:33;;;;;;;;;;;;;;;19.96;58.31;101110.38;5363075;32;34100;-79
2023/09/27 02:10:35;;;;;;;;;;;;;;;19.09;60.64;101105.38;5371313;32;34408;-79
2023/09/27 02:13:37;;;;;;;;;;;;;;;19.84;58.62;101113.88;5364237;32;34256;-80
2023/09/27 02:16:43;;;;;;;;;;;;;;;19.68;58.98;101114.03;5369453;32;34060;-79
2023/09/27 02:19:45;;;;;;;;;;;;;;;19.72;59.00;101118.22;5366172;32;35261;-80
2023/09/27 02:22:50;;;;;;;;;;;;;;;19.87;58.33;101111.00;5369255;32;34147;-80
2023/09/27 02:25:56;;;;;;;;;;;;;;;18.77;61.90;101113.56;5367658;32;35542;-79
2023/09/27 02:28:59;;;;;;;;;;;;;;;19.13;60.40;101120.22;5367762;32;34155;-79
2023/09/27 02:32:02;;;;;;;;;;;;;;;19.03;61.82;101114.63;5369441;32;34583;-79
2023/09/27 02:35:04;;;;;;;;;;;;;;;19.20;60.44;101105.56;5366081;32;34804;-79
2023/09/27 02:38:06;;;;;;;;;;;;;;;19.21;60.67;101101.94;5369731;32;33682;-79
2023/09/27 02:41:14;;;;;;;;;;;;;;;19.61;59.69;101112.72;5360156;32;33064;-79
2023/09/27 02:44:17;;;;;;;;;;;;;;;19.28;60.62;101108.59;5423448;32;33227;-79
2023/09/27 02:47:19;;;;;;;;;;;;;;;19.09;61.14;101110.72;5429252;32;34173;-81
2023/09/27 02:50:21;;;;;;;;;;;;;;;18.76;62.93;101114.53;5426817;32;33700;-81
2023/09/27 02:53:23;;;;;;;;;;;;;;;18.80;63.15;101104.53;5422345;32;35742;-79
2023/09/27 02:56:26;;;;;;;;;;;;;;;19.40;60.73;101113.12;5420698;32;34106;-79
2023/09/27 02:59:29;;;;;;;;;;;;;;;18.89;62.44;101117.28;5438020;32;34895;-78
2023/09/27 03:02:33;;;;;;;;;;;;;;;19.16;61.82;101117.34;5428047;32;33689;-82
2023/09/27 03:05:35;;;;;;;;;;;;;;;19.22;61.72;101114.31;5427209;32;34322;-82
2023/09/27 03:08:39;;;;;;;;;;;;;;;19.33;61.64;101114.47;5415430;32;35441;-82
2023/09/27 03:11:43;;;;;;;;;;;;;;;19.64;60.54;101112.50;5429895;32;35085;-81
2023/09/27 03:14:45;;;;;;;;;;;;;;;18.71;63.40;101116.62;5432208;32;34160;-80
2023/09/27 03:17:47;;;;;;;;;;;;;;;19.44;61.35;101119.09;5427401;32;34099;-81
2023/09/27 03:20:51;;;;;;;;;;;;;;;19.37;61.34;101115.97;5433571;32;35364;-81
2023/09/27 03:23:53;;;;;;;;;;;;;;;18.27;65.42;101124.59;5413137;32;35003;-81
2023/09/27 03:26:56;;;;;;;;;;;;;;;18.26;66.07;101129.06;5434218;32;35433;-82
2023/09/27 03:29:58;;;;;;;;;;;;;;;18.96;63.66;101117.75;5409507;32;34273;-80
2023/09/27 03:33:01;;;;;;;;;;;;;;;19.29;62.02;101115.63;5429472;32;35678;-81
2023/09/27 03:36:03;;;;;;;;;;;;;;;19.42;61.43;101116.53;5432190;32;34737;-81
2023/09/27 03:39:05;;;;;;;;;;;;;;;19.04;61.85;101115.47;5429674;32;35397;-81
2023/09/27 03:42:09;;;;;;;;;;;;;;;18.49;64.86;101110.88;5415736;32;34031;-81
2023/09/27 03:45:11;;;;;;;;;;;;;;;18.86;63.39;101118.31;5429406;32;35212;-81
2023/09/27 03:48:14;;;;;;;;;;;;;;;19.12;62.55;101113.16;5430513;32;34183;-81
2023/09/27 03:51:25;;;;;;;;;;;;;;;18.25;65.60;101132.66;5429216;32;34266;-81
2023/09/27 03:54:27;;;;;;;;;;;;;;;18.90;63.86;101127.84;5428767;32;34251;-81
2023/09/27 03:57:29;;;;;;;;;;;;;;;19.07;62.61;101118.81;5429003;32;34385;-81
2023/09/27 04:00:32;;;;;;;;;;;;;;;19.14;62.36;101117.47;5428395;32;35054;-81
2023/09/27 04:03:34;;;;;;;;;;;;;;;18.47;64.84;101132.22;5429616;32;34015;-83
2023/09/27 04:06:37;;;;;;;;;;;;;;;19.10;62.98;101126.59;5432715;32;34297;-81
2023/09/27 04:09:39;;;;;;;;;;;;;;;19.40;61.64;101123.78;5414791;32;35367;-81
2023/09/27 04:12:41;;;;;;;;;;;;;;;18.94;62.65;101121.37;5430455;32;34367;-83
2023/09/27 04:15:43;;;;;;;;;;;;;;;18.88;63.12;101111.09;5409355;32;32958;-80
2023/09/27 04:18:46;;;;;;;;;;;;;;;18.51;64.40;101119.59;5428769;32;34485;-80
2023/09/27 04:21:48;;;;;;;;;;;;;;;19.10;61.98;101107.94;5428674;32;34277;-81
2023/09/27 04:24:50;;;;;;;;;;;;;;;18.29;63.72;101128.00;5410662;32;34210;-79
2023/09/27 04:27:53;;;;;;;;;;;;;;;18.07;65.24;101115.97;5414946;32;34301;-79
2023/09/27 04:30:55;;;;;;;;;;;;;;;18.05;66.28;101122.34;5428280;32;34463;-80
2023/09/27 04:33:57;;;;;;;;;;;;;;;18.97;62.70;101130.12;5431215;32;34366;-79
2023/09/27 04:37:00;;;;;;;;;;;;;;;18.36;63.65;101138.22;5428699;32;34241;-80
2023/09/27 04:40:08;;;;;;;;;;;;;;;18.23;64.87;101139.03;5431626;32;34833;-79
2023/09/27 04:43:11;;;;;;;;;;;;;;;18.43;64.15;101138.72;5429184;32;34098;-79
2023/09/27 04:46:13;;;;;;;;;;;;;;;18.54;63.70;101132.72;5429858;32;34246;-82
2023/09/27 04:49:16;;;;;;;;;;;;;;;18.84;62.40;101132.69;5429520;32;34189;-81
2023/09/27 04:52:20;;;;;;;;;;;;;;;18.79;63.34;101132.09;5425190;32;33961;-83
2023/09/27 04:55:22;;;;;;;;;;;;;;;19.34;61.12;101131.34;5414334;32;34545;-81
2023/09/27 04:58:24;;;;;;;;;;;;;;;18.90;62.17;101135.84;5415935;32;35314;-80
2023/09/27 05:01:27;;;;;;;;;;;;;;;18.64;63.62;101149.84;5430898;32;34264;-81
2023/09/27 05:04:32;;;;;;;;;;;;;;;19.36;61.07;101132.94;5417144;32;34208;-83
2023/09/27 05:07:34;;;;;;;;;;;;;;;18.52;63.70;101146.13;5429400;32;34525;-81
2023/09/27 05:10:36;;;;;;;;;;;;;;;18.15;64.84;101144.78;5430046;32;35315;-81
2023/09/27 05:13:38;;;;;;;;;;;;;;;18.77;63.05;101140.19;5429096;32;35315;-81
2023/09/27 05:16:40;;;;;;;;;;;;;;;18.60;63.36;101143.84;5403714;32;33954;-81
2023/09/27 05:19:42;;;;;;;;;;;;;;;18.77;63.24;101139.34;5424130;32;33949;-81
2023/09/27 05:22:44;;;;;;;;;;;;;;;18.87;62.28;101140.47;5430355;32;35412;-82
2023/09/27 05:25:47;;;;;;;;;;;;;;;19.29;61.46;101146.75;5428853;32;34204;-82
2023/09/27 05:28:49;;;;;;;;;;;;;;;19.27;61.24;101143.34;5428917;32;35394;-84
2023/09/27 05:31:51;;;;;;;;;;;;;;;20.64;57.66;101141.41;5431337;32;34632;-81
2023/09/27 05:34:53;;;;;;;;;;;;;;;20.54;57.57;101152.72;5425733;32;34227;-88
2023/09/27 05:37:55;;;;;;;;;;;;;;;20.36;57.56;101161.94;5434077;32;35105;-87
2023/09/27 05:40:57;;;;;;;;;;;;;;;21.60;54.63;101162.13;5412892;32;34192;-83
2023/09/27 05:43:59;;;;;;;;;;;;;;;21.95;52.58;101156.00;5430595;32;35313;-84
2023/09/27 05:47:02;;;;;;;;;;;;;;;21.83;53.05;101154.22;5429805;32;35113;-83
2023/09/27 05:50:05;;;;;;;;;;;;;;;23.48;48.90;101150.31;5428113;32;34019;-84
2023/09/27 05:53:07;;;;;;;;;;;;;;;23.29;48.54;101157.31;5428132;32;35186;-88
2023/09/27 05:56:10;;;;;;;;;;;;;;;23.76;47.93;101157.03;5427518;32;34385;-86
2023/09/27 05:59:14;;;;;;;;;;;;;;;24.83;44.28;101145.25;5411478;32;34578;-88
2023/09/27 06:02:16;;;;;;;;;;;;;;;24.98;44.41;101151.13;5428112;32;34283;-89
2023/09/27 06:05:19;;;;;;;;;;;;;;;25.33;43.79;101156.13;5437232;32;32906;-84
2023/09/27 06:08:21;;;;;;;;;;;;;;;25.61;43.11;101146.41;5426106;32;33978;-81
2023/09/27 06:11:23;;;;;;;;;;;;;;;26.26;41.35;101159.37;5426537;32;34346;-84
2023/09/27 06:14:26;;;;;;;;;;;;;;;27.01;39.36;101158.53;5428872;32;35416;-84
2023/09/27 06:17:28;;;;;;;;;;;;;;;25.86;41.65;101171.97;5430925;32;35049;-87
2023/09/27 06:20:30;;;;;;;;;;;;;;;26.94;39.47;101176.31;5437467;32;34902;-88
2023/09/27 06:23:33;;;;;;;;;;;;;;;27.52;38.04;101168.00;5416996;32;34133;-94
2023/09/27 06:26:35;;;;;;;;;;;;;;;27.86;37.14;101168.22;5435603;32;33945;-88
2023/09/27 06:29:37;;;;;;;;;;;;;;;26.08;40.62;101176.28;5440143;32;36403;-86
2023/09/27 06:32:40;;;;;;;;;;;;;;;27.50;37.68;101180.78;5414147;32;34694;-79
2023/09/27 06:35:42;;;;;;;;;;;;;;;26.50;39.39;101194.84;5412670;32;34070;-81
2023/09/27 06:38:44;;;;;;;;;;;;;;;26.32;39.70;101192.00;5431130;32;35366;-79
2023/09/27 06:41:46;;;;;;;;;;;;;;;26.20;40.25;101191.28;5431244;32;34140;-80
2023/09/27 06:44:49;;;;;;;;;;;;;;;27.02;38.59;101199.84;5429052;32;33705;-81
2023/09/27 06:47:51;;;;;;;;;;;;;;;27.37;38.17;101196.47;5427904;32;34085;-79
2023/09/27 06:50:54;;;;;;;;;;;;;;;27.97;36.99;101188.78;5425732;32;36381;-81
2023/09/27 06:53:56;;;;;;;;;;;;;;;27.33;37.08;101195.94;5425649;32;35291;-82
2023/09/27 06:56:59;;;;;;;;;;;;;;;27.30;37.71;101196.22;5417172;32;34394;-84
2023/09/27 07:00:01;;;;;;;;;;;;;;;26.92;38.01;101203.44;5416012;32;34085;-81
2023/09/27 07:03:09;;;;;;;;;;;;;;;28.05;36.78;101196.94;5429560;32;35059;-81
2023/09/27 07:06:11;;;;;;;;;;;;;;;28.83;34.98;101197.09;5432035;32;33721;-79
2023/09/27 07:09:16;;;;;;;;;;;;;;;28.25;35.20;101194.94;5409805;32;33807;-83
2023/09/27 07:12:18;;;;;;;;;;;;;;;29.41;33.45;101196.44;5436551;32;34475;-81
2023/09/27 07:15:20;;;;;;;;;;;;;;;28.49;35.04;101200.59;5428458;32;34475;-82
2023/09/27 07:18:24;;;;;;;;;;;;;;;27.62;36.75;101201.16;5404581;32;34500;-81
2023/09/27 07:21:27;;;;;;;;;;;;;;;27.48;36.77;101191.72;5432982;32;35465;-80
2023/09/27 07:24:31;;;;;;;;;;;;;;;29.37;33.89;101197.78;5439967;32;34053;-79
2023/09/27 07:27:33;;;;;;;;;;;;;;;29.74;32.60;101197.44;5423554;32;34653;-79
2023/09/27 07:30:35;;;;;;;;;;;;;;;28.05;35.84;101205.91;5420592;32;34214;-81
2023/09/27 07:33:38;;;;;;;;;;;;;;;30.71;31.19;101206.72;5412557;32;35994;-81
2023/09/27 07:36:40;;;;;;;;;;;;;;;30.49;31.57;101208.25;5411209;32;35282;-83
2023/09/27 07:39:42;;;;;;;;;;;;;;;28.62;34.40;101210.16;5425437;32;33594;-83
2023/09/27 07:42:46;;;;;;;;;;;;;;;30.01;32.80;101199.00;5429842;32;34449;-81
2023/09/27 07:45:48;;;;;;;;;;;;;;;30.17;32.35;101207.22;5430268;32;34408;-77
2023/09/27 07:48:50;;;;;;;;;;;;;;;31.30;31.02;101212.75;5422869;32;34385;-78
2023/09/27 07:51:52;;;;;;;;;;;;;;;29.84;33.28;101210.84;5428828;32;33039;-79
2023/09/27 07:54:58;;;;;;;;;;;;;;;26.74;39.16;101226.75;5422715;32;34320;-84
2023/09/27 07:58:00;;;;;;;;;;;;;;;26.71;39.16;101221.62;5427228;32;35261;-81
2023/09/27 08:01:03;;;;;;;;;;;;;;;27.05;38.41;101221.13;5422472;32;34131;-78
2023/09/27 08:04:12;;;;;;;;;;;;;;;25.76;41.27;101224.97;5426548;32;34228;-83
2023/09/27 08:07:14;;;;;;;;;;;;;;;27.16;38.88;101224.53;5425891;32;35545;-77
2023/09/27 08:10:17;;;;;;;;;;;;;;;25.31;42.79;101224.47;5427802;32;35247;-80
2023/09/27 08:13:25;;;;;;;;;;;;;;;25.20;43.54;101230.81;5425257;32;35473;-78
2023/09/27 08:16:28;;;;;;;;;;;;;;;24.66;43.74;101231.84;5428473;32;35366;-90
2023/09/27 08:19:33;;;;;;;;;;;;;;;25.37;41.76;101224.81;5420295;32;34369;-77
2023/09/27 08:22:39;;;;;;;;;;;;;;;24.60;43.51;101229.69;5405373;32;35571;-81
2023/09/27 08:25:41;;;;;;;;;;;;;;;25.03;42.64;101229.56;5420711;32;34258;-81
2023/09/27 08:28:47;;;;;;;;;;;;;;;25.28;42.49;101230.16;5425406;32;34371;-82
2023/09/27 08:31:52;;;;;;;;;;;;;;;24.10;45.19;101221.34;5421004;32;36223;-76
2023/09/27 08:34:55;;;;;;;;;;;;;;;24.37;43.84;101228.97;5423310;32;35396;-81
2023/09/27 08:37:58;;;;;;;;;;;;;;;25.04;42.64;101227.72;5425518;32;34163;-81
2023/09/27 08:41:00;;;;;;;;;;;;;;;24.80;42.82;101226.19;5424267;32;34536;-81
2023/09/27 08:44:02;;;;;;;;;;;;;;;24.91;42.62;101217.16;5425402;32;33994;-81
2023/09/27 08:47:05;;;;;;;;;;;;;;;23.73;45.45;101240.47;5417303;32;35894;-84
2023/09/27 08:50:13;;;;;;;;;;;;;;;23.99;45.17;101221.38;5404671;32;34227;-85
2023/09/27 08:53:22;;;;;;;;;;;;;;;25.58;42.00;101221.22;5415620;32;34103;-82
2023/09/27 08:56:28;;;;;;;;;;;;;;;24.84;43.19;101222.22;5417533;32;35277;-86
2023/09/27 08:59:34;;;;;;;;;;;;;;;24.56;44.06;101228.25;5410585;32;33752;-83
2023/09/27 09:02:37;;;;;;;;;;;;;;;25.15;42.79;101229.53;5406708;32;34151;-91
2023/09/27 09:05:40;;;;;;;;;;;;;;;24.54;43.33;101225.72;5427273;32;34573;-83
2023/09/27 09:08:46;;;;;;;;;;;;;;;25.34;41.89;101218.84;5407027;32;33562;-79
2023/09/27 09:11:54;;;;;;;;;;;;;;;24.86;43.16;101216.75;5425016;32;34038;-82
2023/09/27 09:14:57;;;;;;;;;;;;;;;24.54;44.64;101211.44;5419882;32;34300;-85
2023/09/27 09:17:59;;;;;;;;;;;;;;;24.93;42.28;101215.22;5418177;32;34271;-82
2023/09/27 09:21:08;;;;;;;;;;;;;;;25.47;41.34;101208.69;5410831;32;35394;-84
2023/09/27 09:24:29;;;;;;;;;;;;;;;26.48;39.53;101204.94;5404508;32;34173;-83
2023/09/27 09:27:32;;;;;;;;;;;;;;;29.36;34.72;101204.19;5417503;32;34093;-80
2023/09/27 09:30:35;;;;;;;;;;;;;;;30.97;31.43;101190.22;5420420;32;34351;-79
2023/09/27 09:33:38;;;;;;;;;;;;;;;31.95;29.48;101185.25;5416659;32;34156;-82
2023/09/27 09:36:40;;;;;;;;;;;;;;;32.85;27.64;101187.25;5414854;32;34001;-89
2023/09/27 09:39:43;;;;;;;;;;;;;;;33.67;26.70;101187.13;5382374;32;35470;-80
2023/09/27 09:42:48;;;;;;;;;;;;;;;32.07;28.63;101189.25;5378691;32;34240;-87
2023/09/27 09:45:54;;;;;;;;;;;;;;;35.55;24.11;101181.94;5384447;32;33964;-82
2023/09/27 09:48:56;;;;;;;;;;;;;;;34.12;24.91;101168.75;5379575;32;35327;-83
2023/09/27 09:51:59;;;;;;;;;;;;;;;35.90;22.88;101165.44;5395158;32;34154;-84
2023/09/27 09:55:03;;;;;;;;;;;;;;;36.79;22.16;101160.44;5409199;32;36062;-86
2023/09/27 09:58:33;;;;;;;;;;;;;;;37.11;21.30;101166.94;5405969;32;35542;-83
2023/09/27 10:01:39;;;;;;;;;;;;;;;35.11;23.00;101168.72;5408131;32;34411;-80
2023/09/27 10:04:41;;;;;;;;;;;;;;;34.95;23.43;101169.88;5404778;32;33889;-85
2023/09/27 10:07:43;;;;;;;;;;;;;;;37.04;20.67;101152.41;5395143;32;33757;-84
2023/09/27 10:10:46;;;;;;;;;;;;;;;36.22;21.77;101156.47;5394022;32;35451;-85
2023/09/27 10:13:48;;;;;;;;;;;;;;;39.17;18.86;101157.25;5408536;32;33718;-83
2023/09/27 10:16:50;;;;;;;;;;;;;;;37.85;19.61;101161.97;5398472;32;34151;-90
2023/09/27 10:20:15;;;;;;;;;;;;;;;37.23;20.28;101149.78;5414956;32;34089;-85
2023/09/27 10:23:17;;;;;;;;;;;;;;;40.05;17.51;101138.25;5415210;32;34124;-82
2023/09/27 10:26:22;;;;;;;;;;;;;;;39.30;18.46;101146.09;5406414;32;33945;-86
2023/09/27 10:29:24;;;;;;;;;;;;;;;37.95;19.77;101134.91;5409575;32;33246;-90
2023/09/27 10:32:26;;;;;;;;;;;;;;;35.71;21.46;101140.59;5401034;32;33984;-85
2023/09/27 10:35:28;;;;;;;;;;;;;;;37.79;19.57;101129.91;5413523;32;34866;-92
2023/09/27 10:38:59;;;;;;;;;;;;;;;36.76;20.60;101129.91;5416450;32;34132;-87
2023/09/27 10:42:01;;;;;;;;;;;;;;;34.40;23.10;101128.72;5421874;32;32549;-85
2023/09/27 10:45:09;;;;;;;;;;;;;;;34.77;23.54;101126.66;5427365;32;34206;-88
2023/09/27 10:48:18;;;;;;;;;;;;;;;33.29;25.00;101135.47;5436990;32;35050;-84
2023/09/27 10:51:21;;;;;;;;;;;;;;;31.87;27.45;101133.66;5435882;32;34518;-81
2023/09/27 10:54:24;;;;;;;;;;;;;;;30.35;29.27;101136.56;5402539;32;35340;-89
2023/09/27 10:57:57;;;;;;;;;;;;;;;31.04;28.22;101134.19;5415468;32;33307;-92
2023/09/27 11:01:06;;;;;;;;;;;;;;;30.77;28.89;101130.06;5426697;32;34123;-85
2023/09/27 11:04:12;;;;;;;;;;;;;;;30.71;28.79;101123.44;5423998;32;34299;-83
2023/09/27 11:07:18;;;;;;;;;;;;;;;30.79;28.98;101110.91;5417250;32;33733;-85
2023/09/27 11:10:32;;;;;;;;;;;;;;;29.52;31.10;101108.69;5422045;32;37295;-87
2023/09/27 11:13:43;;;;;;;;;;;;;;;29.19;32.09;101105.00;5420130;32;34217;-87
2023/09/27 11:16:51;;;;;;;;;;;;;;;30.17;30.63;101097.94;5425405;32;34279;-91
2023/09/27 11:19:56;;;;;;;;;;;;;;;29.47;31.61;101092.03;5411062;32;34607;-87
2023/09/27 11:22:58;;;;;;;;;;;;;;;29.48;30.77;101089.16;5412169;32;33863;-90
2023/09/27 11:26:04;;;;;;;;;;;;;;;29.74;30.49;101088.22;5401840;32;34245;-92
2023/09/27 11:29:15;;;;;;;;;;;;;;;28.65;31.59;101059.22;5403919;32;36166;-90
2023/09/27 11:32:17;;;;;;;;;;;;;;;29.90;30.23;101089.09;5418160;32;35245;-84
2023/09/27 11:35:20;;;;;;;;;;;;;;;30.42;29.24;101082.47;5394669;32;36493;-82
2023/09/27 11:38:25;;;;;;;;;;;;;;;28.99;30.61;101078.19;5404256;32;35672;-84
2023/09/27 11:41:28;;;;;;;;;;;;;;;28.63;31.61;101077.47;5408316;32;33827;-86
2023/09/27 11:44:34;;;;;;;;;;;;;;;28.67;31.34;101070.75;5398234;32;35438;-87
2023/09/27 11:47:46;;;;;;;;;;;;;;;29.27;31.14;101067.97;5411773;32;33500;-85
2023/09/27 11:50:48;;;;;;;;;;;;;;;29.75;29.95;101069.09;5410476;32;34579;-87
2023/09/27 11:53:51;;;;;;;;;;;;;;;30.19;29.07;101064.19;5399353;32;32676;-85
2023/09/27 11:56:53;;;;;;;;;;;;;;;31.25;27.77;101053.03;5422048;32;36736;-86
2023/09/27 11:59:56;;;;;;;;;;;;;;;30.79;28.66;101049.34;5424548;32;34981;-82
2023/09/27 12:02:58;;;;;;;;;;;;;;;30.12;28.65;101051.50;5416467;32;34199;-82
2023/09/27 12:06:02;;;;;;;;;;;;;;;30.82;27.13;101040.00;5410409;32;34408;-84
2023/09/27 12:09:05;;;;;;;;;;;;;;;30.29;27.65;101049.63;5410903;32;35610;-90
2023/09/27 12:12:07;;;;;;;;;;;;;;;30.62;27.30;101037.66;5412668;32;34090;-88
2023/09/27 12:15:10;;;;;;;;;;;;;;;29.74;29.16;101037.59;5424862;32;35481;-88
2023/09/27 12:18:12;;;;;;;;;;;;;;;29.92;27.69;101040.97;5420675;32;34178;-86
2023/09/27 12:21:14;;;;;;;;;;;;;;;29.92;27.54;101034.72;5433129;32;34096;-88
2023/09/27 12:24:17;;;;;;;;;;;;;;;29.60;27.64;101028.28;5437486;32;35274;-88
2023/09/27 12:27:19;;;;;;;;;;;;;;;29.58;28.07;101024.91;5430845;32;35057;-86
2023/09/27 12:30:21;;;;;;;;;;;;;;;29.37;27.91;101027.22;5421254;32;34425;-86
2023/09/27 12:33:24;;;;;;;;;;;;;;;29.45;27.45;101029.09;5434113;32;34433;-85
2023/09/27 12:36:26;;;;;;;;;;;;;;;29.61;27.39;101023.72;5438016;32;34317;-84
2023/09/27 12:39:29;;;;;;;;;;;;;;;29.71;26.94;101027.09;5439107;32;35082;-90
2023/09/27 12:42:33;;;;;;;;;;;;;;;29.53;27.56;101016.44;5433395;32;35567;-83
2023/09/27 12:45:37;;;;;;;;;;;;;;;29.38;27.94;101018.94;5416193;32;35040;-84
2023/09/27 12:48:39;;;;;;;;;;;;;;;29.54;28.03;101017.28;5419916;32;34139;-82
2023/09/27 12:51:42;;;;;;;;;;;;;;;30.18;26.63;101011.00;5434013;32;34219;-83
2023/09/27 12:54:51;;;;;;;;;;;;;;;31.26;24.77;100999.59;5415371;32;34174;-90
2023/09/27 12:57:53;;;;;;;;;;;;;;;31.47;24.96;100996.19;5430327;32;34352;-82
2023/09/27 13:00:55;;;;;;;;;;;;;;;31.01;24.78;100991.56;5428562;32;35952;-85
2023/09/27 13:03:57;;;;;;;;;;;;;;;34.78;21.64;100980.94;5430734;32;36462;-89
2023/09/27 13:07:00;;;;;;;;;;;;;;;35.31;19.26;100969.34;5431759;32;35283;-85
2023/09/27 13:10:04;;;;;;;;;;;;;;;34.09;20.91;100983.69;5425257;32;34412;-85
2023/09/27 13:13:06;;;;;;;;;;;;;;;34.53;20.70;100980.63;5426332;32;34028;-81
2023/09/27 13:16:13;;;;;;;;;;;;;;;35.46;18.67;100965.38;5427498;32;33643;-79
2023/09/27 13:19:16;;;;;;;;;;;;;;;35.18;19.38;100967.44;5432957;32;35390;-84
2023/09/27 13:22:19;;;;;;;;;;;;;;;38.78;15.57;100947.00;5434280;32;34243;-88
2023/09/27 13:25:22;;;;;;;;;;;;;;;41.01;14.38;100948.69;5436039;32;34126;-82
2023/09/27 13:28:24;;;;;;;;;;;;;;;40.78;14.29;100935.84;5431018;32;35638;-91
2023/09/27 13:31:32;;;;;;;;;;;;;;;40.76;13.86;100939.91;5412210;32;34864;-80
2023/09/27 13:34:35;;;;;;;;;;;;;;;38.59;15.26;100944.25;5428151;32;35060;-79
2023/09/27 13:37:37;;;;;;;;;;;;;;;34.71;19.15;100956.31;5415877;32;34843;-80
2023/09/27 13:40:39;;;;;;;;;;;;;;;31.57;22.94;100945.19;5431277;32;35703;-90
2023/09/27 13:43:41;;;;;;;;;;;;;;;33.21;21.08;100942.22;5428586;32;34295;-81
2023/09/27 13:46:44;;;;;;;;;;;;;;;32.96;21.64;100944.47;5428065;32;33843;-84
2023/09/27 13:49:46;;;;;;;;;;;;;;;30.82;24.11;100942.31;5427694;32;34096;-81
2023/09/27 13:52:48;;;;;;;;;;;;;;;30.72;24.71;100940.69;5412665;32;33651;-80
2023/09/27 13:55:50;;;;;;;;;;;;;;;29.87;25.62;100934.97;5434455;32;34321;-81
2023/09/27 13:58:52;;;;;;;;;;;;;;;29.21;26.55;100940.56;5422493;32;34063;-85
2023/09/27 14:01:55;;;;;;;;;;;;;;;30.16;25.61;100937.16;5432059;32;33975;-85
2023/09/27 14:04:57;;;;;;;;;;;;;;;29.20;26.76;100944.28;5424792;32;35884;-83
2023/09/27 14:07:59;;;;;;;;;;;;;;;28.85;27.73;100940.78;5430716;32;34251;-83
2023/09/27 14:11:01;;;;;;;;;;;;;;;29.55;26.73;100932.31;5414479;32;34725;-83
2023/09/27 14:14:04;;;;;;;;;;;;;;;29.60;26.44;100929.94;5429887;32;35420;-86
2023/09/27 14:17:06;;;;;;;;;;;;;;;29.41;26.54;100928.37;5430373;32;34391;-81
2023/09/27 14:20:10;;;;;;;;;;;;;;;29.68;26.57;100928.06;5410373;32;34857;-81
2023/09/27 14:23:12;;;;;;;;;;;;;;;29.90;26.75;100922.97;5427604;32;35216;-83
2023/09/27 14:26:15;;;;;;;;;;;;;;;29.77;26.26;100926.19;5415569;32;34277;-82
2023/09/27 14:29:21;;;;;;;;;;;;;;;29.61;26.75;100927.03;5429104;32;33067;-83
2023/09/27 14:32:36;;;;;;;;;;;;;;;29.10;27.47;100926.31;5416860;32;35213;-80
2023/09/27 14:35:39;;;;;;;;;;;;;;;29.61;26.56;100918.91;5407579;32;34137;-81
2023/09/27 14:39:01;;;;;;;;;;;;;;;29.70;26.56;100908.09;5413677;32;34343;-81
2023/09/27 14:42:03;;;;;;;;;;;;;;;29.64;27.23;100910.47;5427709;32;34148;-79
2023/09/27 14:45:06;;;;;;;;;;;;;;;29.61;25.29;100916.22;5411576;32;34358;-81
2023/09/27 14:48:17;;;;;;;;;;;;;;;29.78;24.64;100902.66;5423606;32;34138;-80
2023/09/27 14:51:20;;;;;;;;;;;;;;;29.42;25.39;100919.25;5428305;32;34153;-84
2023/09/27 14:54:22;;;;;;;;;;;;;;;28.70;26.99;100918.94;5435358;32;35450;-85
2023/09/27 14:57:26;;;;;;;;;;;;;;;29.13;25.99;100911.63;5420067;32;34418;-86
2023/09/27 15:00:31;;;;;;;;;;;;;;;29.05;25.88;100915.19;5434477;32;34193;-85
2023/09/27 15:03:33;;;;;;;;;;;;;;;29.22;25.31;100910.59;5434622;32;34263;-81
2023/09/27 15:06:39;;;;;;;;;;;;;;;28.58;26.59;100915.69;5413143;32;34058;-83
2023/09/27 15:09:42;;;;;;;;;;;;;;;28.95;26.40;100914.47;5437453;32;34233;-80
2023/09/27 15:12:44;;;;;;;;;;;;;;;28.79;26.77;100917.12;5433181;32;34382;-82
2023/09/27 15:15:47;;;;;;;;;;;;;;;28.70;27.00;100916.25;5438090;32;34254;-84
2023/09/27 15:18:49;;;;;;;;;;;;;;;28.54;27.30;100917.06;5431787;32;34182;-79
2023/09/27 15:21:51;;;;;;;;;;;;;;;28.85;26.93;100909.19;5415688;32;33931;-86
2023/09/27 15:24:54;;;;;;;;;;;;;;;28.32;27.82;100906.81;5419766;32;34335;-85
2023/09/27 15:27:56;;;;;;;;;;;;;;;28.39;28.05;100909.72;5430916;32;34219;-85
2023/09/27 15:30:58;;;;;;;;;;;;;;;28.59;27.53;100913.84;5431226;32;34625;-83
2023/09/27 15:34:00;;;;;;;;;;;;;;;27.97;28.38;100914.06;5431634;32;34748;-84
2023/09/27 15:37:02;;;;;;;;;;;;;;;28.86;26.50;100918.16;5440112;32;34685;-81
2023/09/27 15:40:05;;;;;;;;;;;;;;;27.84;28.46;100910.94;5428895;32;33218;-82
2023/09/27 15:43:08;;;;;;;;;;;;;;;28.16;27.58;100912.13;5443956;32;34304;-81
2023/09/27 15:46:10;;;;;;;;;;;;;;;28.38;27.16;100903.47;5436852;32;34330;-82